createdAt,value
2018-02-22T00:00:33.525Z,16.40
2018-02-22T00:03:01.353Z,20.57
2018-02-22T00:05:28.948Z,23.00
2018-02-22T00:07:56.586Z,18.43
2018-02-22T00:10:24.345Z,19.63
2018-02-22T00:12:52.158Z,22.50
2018-02-22T00:15:19.901Z,19.43
2018-02-22T00:17:47.606Z,22.30
2018-02-22T00:20:15.198Z,21.17
2018-02-22T00:22:42.959Z,22.97
2018-02-22T00:25:10.549Z,17.50
2018-02-22T00:27:38.151Z,20.53
2018-02-22T00:30:05.869Z,20.83
2018-02-22T00:32:33.473Z,20.40
2018-02-22T00:35:01.235Z,22.10
2018-02-22T00:37:29.114Z,20.60
2018-02-22T00:39:56.785Z,22.87
2018-02-22T00:42:24.444Z,16.10
2018-02-22T00:44:52.139Z,12.47
2018-02-22T00:47:19.756Z,20.50
2018-02-22T00:49:47.401Z,21.10
2018-02-22T00:52:15.050Z,21.03
2018-02-22T00:54:42.839Z,20.27
2018-02-22T00:57:10.675Z,17.73
2018-02-22T00:59:38.386Z,15.27
2018-02-22T01:02:05.996Z,18.60
2018-02-22T01:04:33.723Z,21.33
2018-02-22T01:07:01.413Z,15.37
2018-02-22T01:09:29.202Z,18.50
2018-02-22T01:11:56.976Z,18.43
2018-02-22T01:14:24.628Z,18.30
2018-02-22T01:16:52.330Z,22.17
2018-02-22T01:19:20.112Z,22.63
2018-02-22T01:21:47.839Z,21.37
2018-02-22T01:24:15.459Z,21.20
2018-02-22T01:26:43.093Z,19.30
2018-02-22T01:29:10.912Z,13.97
2018-02-22T01:31:38.657Z,20.63
2018-02-22T01:34:06.266Z,15.73
2018-02-22T01:36:34.142Z,19.50
2018-02-22T01:39:01.880Z,21.40
2018-02-22T01:41:29.705Z,18.97
2018-02-22T01:43:57.339Z,15.80
2018-02-22T01:46:25.018Z,20.20
2018-02-22T01:48:52.723Z,17.07
2018-02-22T01:51:20.387Z,18.80
2018-02-22T01:53:48.071Z,16.80
2018-02-22T01:56:15.679Z,17.07
2018-02-22T01:58:43.314Z,19.60
2018-02-22T02:01:11.006Z,21.07
2018-02-22T02:03:38.740Z,14.47
2018-02-22T02:06:06.556Z,14.40
2018-02-22T02:08:34.434Z,11.23
2018-02-22T02:11:02.035Z,19.50
2018-02-22T02:13:29.675Z,17.30
2018-02-22T02:15:57.362Z,19.70
2018-02-22T02:18:25.129Z,23.40
2018-02-22T02:20:52.720Z,20.00
2018-02-22T02:23:20.385Z,22.90
2018-02-22T02:25:48.117Z,19.77
2018-02-22T02:30:48.546Z,23.67
2018-02-22T02:33:16.262Z,23.00
2018-02-22T02:35:43.911Z,13.90
2018-02-22T02:38:11.570Z,20.60
2018-02-22T02:40:39.643Z,23.50
2018-02-22T02:43:07.262Z,20.43
2018-02-22T02:45:34.867Z,23.20
2018-02-22T02:48:02.551Z,18.73
2018-02-22T02:50:30.128Z,21.80
2018-02-22T02:52:57.727Z,19.97
2018-02-22T02:55:25.387Z,20.57
2018-02-22T02:57:53.168Z,18.37
2018-02-22T03:00:20.841Z,23.80
2018-02-22T03:02:48.557Z,23.90
2018-02-22T03:05:16.143Z,21.23
2018-02-22T03:07:43.865Z,16.30
2018-02-22T03:10:11.481Z,20.80
2018-02-22T03:12:39.126Z,21.67
2018-02-22T03:15:06.709Z,24.10
2018-02-22T03:17:34.293Z,26.77
2018-02-22T03:20:01.928Z,23.53
2018-02-22T03:22:29.516Z,21.30
2018-02-22T03:24:57.172Z,23.00
2018-02-22T03:27:24.789Z,17.13
2018-02-22T03:29:52.435Z,24.37
2018-02-22T03:32:20.032Z,16.47
2018-02-22T03:34:47.635Z,21.07
2018-02-22T03:37:15.345Z,23.13
2018-02-22T03:39:43.033Z,24.50
2018-02-22T03:42:10.696Z,24.10
2018-02-22T03:44:38.299Z,23.97
2018-02-22T03:47:05.953Z,17.90
2018-02-22T03:49:33.550Z,19.60
2018-02-22T03:52:01.141Z,23.37
2018-02-22T03:54:28.805Z,16.87
2018-02-22T03:56:56.647Z,23.90
2018-02-22T03:59:24.237Z,24.90
2018-02-22T04:01:51.997Z,25.43
2018-02-22T04:04:19.593Z,22.50
2018-02-22T04:06:47.245Z,22.90
2018-02-22T04:09:14.917Z,23.13
2018-02-22T04:11:42.610Z,24.10
2018-02-22T04:14:10.279Z,27.07
2018-02-22T04:16:38.053Z,25.67
2018-02-22T04:19:05.682Z,24.73
2018-02-22T04:21:33.380Z,21.60
2018-02-22T04:24:01.083Z,24.13
2018-02-22T04:26:28.866Z,14.03
2018-02-22T04:28:56.458Z,23.60
2018-02-22T04:31:24.066Z,21.23
2018-02-22T04:33:51.785Z,21.60
2018-02-22T04:36:19.456Z,24.60
2018-02-22T04:38:47.141Z,25.23
2018-02-22T04:41:14.818Z,22.83
2018-02-22T04:43:42.411Z,15.20
2018-02-22T04:46:10.166Z,20.50
2018-02-22T04:48:38.051Z,23.20
2018-02-22T04:51:05.644Z,25.27
2018-02-22T04:53:33.283Z,28.03
2018-02-22T04:56:00.898Z,20.60
2018-02-22T04:58:29.404Z,25.90
2018-02-22T05:00:57.070Z,13.40
2018-02-22T05:03:24.705Z,24.63
2018-02-22T05:05:52.394Z,26.30
2018-02-22T05:08:20.017Z,26.40
2018-02-22T05:10:47.614Z,25.10
2018-02-22T05:13:15.282Z,26.37
2018-02-22T05:15:42.990Z,22.90
2018-02-22T05:18:10.586Z,25.40
2018-02-22T05:20:38.300Z,17.70
2018-02-22T05:23:05.890Z,25.67
2018-02-22T05:25:33.477Z,24.90
2018-02-22T05:28:01.148Z,25.57
2018-02-22T05:30:28.725Z,26.90
2018-02-22T05:32:56.304Z,24.00
2018-02-22T05:35:23.953Z,32.23
2018-02-22T05:37:51.656Z,37.50
2018-02-22T05:40:19.261Z,39.07
2018-02-22T05:42:46.881Z,40.70
2018-02-22T05:45:14.501Z,36.20
2018-02-22T05:47:42.101Z,29.93
2018-02-22T05:50:09.742Z,28.70
2018-02-22T05:52:37.326Z,27.60
2018-02-22T05:55:04.975Z,28.07
2018-02-22T05:57:32.859Z,28.43
2018-02-22T06:00:00.579Z,26.97
2018-02-22T06:02:28.309Z,28.30
2018-02-22T06:04:56.064Z,32.33
2018-02-22T06:07:23.763Z,27.43
2018-02-22T06:09:51.341Z,27.83
2018-02-22T06:12:19.017Z,25.50
2018-02-22T06:14:46.689Z,27.60
2018-02-22T06:17:14.361Z,24.67
2018-02-22T06:19:42.246Z,27.63
2018-02-22T06:22:09.905Z,26.07
2018-02-22T06:24:37.598Z,28.70
2018-02-22T06:27:05.375Z,28.50
2018-02-22T06:29:33.150Z,28.50
2018-02-22T06:32:01.032Z,28.10
2018-02-22T06:34:28.810Z,26.80
2018-02-22T06:36:56.587Z,30.20
2018-02-22T06:39:24.255Z,28.17
2018-02-22T06:41:52.144Z,27.33
2018-02-22T06:44:19.818Z,29.60
2018-02-22T06:46:47.482Z,28.47
2018-02-22T06:49:15.170Z,24.37
2018-02-22T06:51:42.926Z,25.20
2018-02-22T06:54:10.723Z,29.43
2018-02-22T06:56:38.506Z,27.27
2018-02-22T06:59:06.282Z,17.33
2018-02-22T07:01:34.062Z,28.97
2018-02-22T07:04:01.713Z,25.60
2018-02-22T07:06:29.402Z,29.93
2018-02-22T07:08:57.145Z,27.67
2018-02-22T07:11:24.797Z,30.90
2018-02-22T07:13:52.496Z,25.53
2018-02-22T07:16:20.323Z,27.47
2018-02-22T07:18:48.197Z,27.00
2018-02-22T07:21:15.942Z,30.63
2018-02-22T07:23:43.542Z,35.77
2018-02-22T07:26:11.216Z,29.30
2018-02-22T07:28:39.102Z,29.57
2018-02-22T07:31:06.702Z,30.10
2018-02-22T07:33:34.456Z,17.80
2018-02-22T07:36:02.235Z,21.57
2018-02-22T07:38:30.007Z,32.03
2018-02-22T07:40:57.747Z,29.10
2018-02-22T07:43:25.350Z,20.07
2018-02-22T07:45:53.144Z,30.17
2018-02-22T07:48:20.876Z,27.03
2018-02-22T07:50:48.769Z,29.50
2018-02-22T07:53:16.575Z,21.40
2018-02-22T07:55:44.352Z,11.40
2018-02-22T07:58:12.021Z,19.20
2018-02-22T08:00:39.703Z,32.03
2018-02-22T08:03:07.478Z,18.60
2018-02-22T08:05:35.240Z,13.50
2018-02-22T08:08:02.998Z,24.87
2018-02-22T08:10:30.659Z,21.77
2018-02-22T08:12:58.240Z,26.37
2018-02-22T08:15:28.770Z,26.73
2018-02-22T08:17:56.814Z,26.43
2018-02-22T08:20:25.250Z,26.77
2018-02-22T08:22:52.982Z,24.43
2018-02-22T08:25:20.763Z,24.97
2018-02-22T08:27:48.354Z,18.30
2018-02-22T08:30:15.950Z,21.53
2018-02-22T08:32:43.603Z,21.70
2018-02-22T08:35:11.357Z,17.43
2018-02-22T08:37:39.093Z,21.60
2018-02-22T08:40:07.121Z,16.87
2018-02-22T08:42:34.999Z,22.27
2018-02-22T08:45:02.877Z,21.53
2018-02-22T08:47:30.611Z,22.77
2018-02-22T08:49:58.426Z,17.23
2018-02-22T08:52:26.218Z,22.20
2018-02-22T08:54:53.936Z,16.80
2018-02-22T08:57:21.772Z,18.83
2018-02-22T08:59:49.548Z,17.93
2018-02-22T09:02:17.136Z,21.40
2018-02-22T09:04:44.998Z,19.40
2018-02-22T09:07:12.781Z,20.03
2018-02-22T09:09:40.659Z,21.67
2018-02-22T09:12:08.396Z,23.93
2018-02-22T09:14:36.215Z,22.83
2018-02-22T09:17:04.093Z,26.27
2018-02-22T09:19:31.825Z,21.80
2018-02-22T09:21:59.516Z,22.60
2018-02-22T09:24:27.292Z,18.07
2018-02-22T09:26:55.104Z,15.23
2018-02-22T09:29:22.839Z,20.87
2018-02-22T09:31:50.560Z,23.23
2018-02-22T09:34:18.274Z,22.40
2018-02-22T09:36:45.991Z,21.57
2018-02-22T09:39:13.634Z,14.30
2018-02-22T09:41:41.261Z,18.90
2018-02-22T09:44:09.035Z,17.70
2018-02-22T09:46:36.956Z,23.67
2018-02-22T09:49:04.693Z,23.00
2018-02-22T09:51:32.795Z,22.50
2018-02-22T09:54:00.502Z,20.57
2018-02-22T09:56:28.241Z,19.77
2018-02-22T09:58:55.892Z,17.90
2018-02-22T10:01:23.650Z,14.83
2018-02-22T10:03:51.470Z,17.43
2018-02-22T10:06:19.188Z,22.77
2018-02-22T10:08:46.915Z,15.93
2018-02-22T10:11:14.586Z,18.07
2018-02-22T10:13:42.368Z,21.63
2018-02-22T10:16:10.249Z,18.77
2018-02-22T10:18:37.843Z,22.33
2018-02-22T10:21:05.678Z,21.30
2018-02-22T10:23:33.482Z,19.13
2018-02-22T10:26:01.265Z,18.73
2018-02-22T10:28:28.927Z,21.47
2018-02-22T10:30:56.713Z,21.13
2018-02-22T10:33:24.481Z,19.17
2018-02-22T10:35:52.229Z,13.47
2018-02-22T10:38:19.941Z,18.00
2018-02-22T10:40:47.723Z,23.03
2018-02-22T10:43:15.318Z,15.73
2018-02-22T10:45:43.172Z,19.00
2018-02-22T10:48:10.951Z,17.20
2018-02-22T10:50:38.781Z,17.23
2018-02-22T10:53:06.512Z,16.37
2018-02-22T10:55:34.094Z,18.37
2018-02-22T10:58:01.860Z,16.00
2018-02-22T11:00:35.268Z,17.13
2018-02-22T11:03:03.052Z,16.43
2018-02-22T11:05:30.777Z,13.43
2018-02-22T11:07:58.501Z,12.00
2018-02-22T11:10:26.381Z,18.80
2018-02-22T11:12:53.974Z,11.87
2018-02-22T11:15:22.189Z,7.47
2018-02-22T11:17:50.022Z,12.53
2018-02-22T11:20:17.800Z,13.40
2018-02-22T11:22:45.580Z,11.50
2018-02-22T11:25:13.458Z,9.50
2018-02-22T11:27:41.037Z,11.00
2018-02-22T11:30:08.806Z,9.80
2018-02-22T11:32:36.583Z,11.93
2018-02-22T11:35:04.238Z,11.80
2018-02-22T11:37:32.042Z,11.97
2018-02-22T11:39:59.822Z,10.73
2018-02-22T11:42:27.573Z,13.03
2018-02-22T11:44:55.364Z,11.57
2018-02-22T11:47:23.153Z,9.80
2018-02-22T11:49:50.929Z,16.07
2018-02-22T11:52:18.662Z,9.17
2018-02-22T11:54:46.381Z,10.60
2018-02-22T11:57:14.162Z,13.50
2018-02-22T11:59:41.986Z,12.43
2018-02-22T12:02:09.677Z,12.93
2018-02-22T12:04:37.498Z,12.27
2018-02-22T12:07:05.156Z,9.93
2018-02-22T12:09:32.727Z,13.50
2018-02-22T12:12:00.315Z,14.50
2018-02-22T12:14:27.972Z,10.67
2018-02-22T12:16:55.767Z,13.00
2018-02-22T12:19:23.543Z,11.77
2018-02-22T12:21:51.631Z,12.20
2018-02-22T12:24:19.381Z,10.73
2018-02-22T12:26:47.186Z,11.90
2018-02-22T12:29:15.070Z,12.13
2018-02-22T12:31:42.736Z,11.00
2018-02-22T12:34:10.467Z,10.27
2018-02-22T12:36:38.120Z,10.80
2018-02-22T12:39:05.758Z,8.90
2018-02-22T12:41:33.512Z,12.80
2018-02-22T12:44:01.367Z,13.23
2018-02-22T12:46:29.106Z,13.03
2018-02-22T12:48:56.881Z,13.10
2018-02-22T12:51:24.658Z,9.60
2018-02-22T12:53:52.444Z,10.57
2018-02-22T12:56:20.267Z,12.20
2018-02-22T12:58:47.841Z,7.77
2018-02-22T13:01:15.445Z,6.50
2018-02-22T13:03:43.140Z,12.60
2018-02-22T13:06:11.016Z,7.50
2018-02-22T13:08:38.742Z,12.17
2018-02-22T13:11:06.434Z,13.27
2018-02-22T13:13:34.053Z,14.20
2018-02-22T13:16:01.828Z,10.60
2018-02-22T13:18:29.600Z,10.93
2018-02-22T13:20:57.380Z,14.10
2018-02-22T13:23:25.160Z,12.73
2018-02-22T13:25:52.816Z,11.37
2018-02-22T13:28:20.612Z,13.10
2018-02-22T13:30:48.385Z,12.10
2018-02-22T13:33:28.044Z,9.10
2018-02-22T13:35:55.826Z,12.97
2018-02-22T13:38:35.261Z,7.57
2018-02-22T13:41:03.051Z,14.70
2018-02-22T13:43:30.796Z,14.33
2018-02-22T13:45:58.501Z,9.30
2018-02-22T13:51:27.026Z,12.20
2018-02-22T13:53:54.783Z,14.00
2018-02-22T13:56:34.222Z,15.17
2018-02-22T13:59:01.841Z,13.33
2018-02-22T14:01:41.501Z,10.27
2018-02-22T14:04:09.276Z,7.93
2018-02-22T14:06:36.897Z,12.80
2018-02-22T14:09:04.831Z,12.50
2018-02-22T14:11:32.606Z,15.70
2018-02-22T14:14:00.194Z,15.27
2018-02-22T14:16:28.062Z,8.10
2018-02-22T14:18:55.840Z,12.47
2018-02-22T14:21:23.428Z,13.37
2018-02-22T14:23:51.291Z,14.50
2018-02-22T14:26:18.971Z,8.00
2018-02-22T14:28:46.725Z,12.07
2018-02-22T14:31:14.512Z,13.23
2018-02-22T14:33:42.311Z,14.40
2018-02-22T14:36:10.084Z,17.27
2018-02-22T14:38:39.600Z,15.80
2018-02-22T14:41:07.276Z,15.00
2018-02-22T14:43:34.872Z,16.63
2018-02-22T14:46:02.731Z,14.80
2018-02-22T14:48:30.510Z,16.10
2018-02-22T14:50:58.098Z,13.10
2018-02-22T14:53:25.750Z,15.40
2018-02-22T14:55:53.420Z,16.97
2018-02-22T14:58:21.205Z,13.00
2018-02-22T15:00:54.362Z,15.97
2018-02-22T15:03:22.191Z,12.83
2018-02-22T15:05:50.022Z,16.37
2018-02-22T15:08:17.746Z,16.07
2018-02-22T15:10:45.421Z,14.60
2018-02-22T15:13:13.081Z,15.63
2018-02-22T15:15:40.876Z,16.97
2018-02-22T15:18:08.600Z,14.80
2018-02-22T15:20:36.236Z,11.50
2018-02-22T15:23:03.906Z,12.10
2018-02-22T15:25:31.493Z,16.83
2018-02-22T15:27:59.240Z,14.97
2018-02-22T15:30:27.031Z,16.00
2018-02-22T15:32:54.702Z,16.47
2018-02-22T15:35:22.345Z,14.27
2018-02-22T15:37:49.933Z,14.57
2018-02-22T15:40:17.510Z,11.53
2018-02-22T15:42:45.315Z,14.60
2018-02-22T15:45:12.896Z,12.17
2018-02-22T15:47:40.758Z,9.77
2018-02-22T15:50:08.638Z,15.17
2018-02-22T15:52:36.312Z,9.37
2018-02-22T15:55:04.190Z,13.73
2018-02-22T15:57:31.965Z,12.57
2018-02-22T15:59:59.564Z,11.60
2018-02-22T16:02:27.320Z,17.07
2018-02-22T16:04:55.096Z,14.00
2018-02-22T16:07:22.684Z,13.33
2018-02-22T16:09:50.332Z,14.90
2018-02-22T16:12:18.014Z,11.57
2018-02-22T16:14:45.797Z,10.73
2018-02-22T16:17:13.543Z,14.23
2018-02-22T16:19:41.236Z,10.00
2018-02-22T16:22:09.032Z,15.63
2018-02-22T16:24:36.700Z,12.20
2018-02-22T16:27:04.377Z,15.53
2018-02-22T16:29:32.056Z,11.30
2018-02-22T16:31:59.796Z,15.40
2018-02-22T16:34:27.499Z,9.43
2018-02-22T16:36:55.289Z,15.20
2018-02-22T16:39:23.171Z,13.20
2018-02-22T16:41:50.833Z,15.20
2018-02-22T16:44:18.622Z,12.83
2018-02-22T16:46:46.389Z,14.50
2018-02-22T16:49:14.180Z,15.77
2018-02-22T16:51:41.862Z,17.20
2018-02-22T16:54:09.517Z,16.17
2018-02-22T16:56:37.302Z,17.93
2018-02-22T16:59:04.889Z,17.57
2018-02-22T17:01:32.758Z,18.90
2018-02-22T17:04:00.349Z,18.30
2018-02-22T17:06:28.114Z,18.83
2018-02-22T17:08:55.993Z,17.33
2018-02-22T17:11:23.776Z,22.40
2018-02-22T17:13:51.383Z,27.27
2018-02-22T17:16:19.306Z,20.67
2018-02-22T17:18:47.104Z,22.77
2018-02-22T17:21:14.880Z,24.03
2018-02-22T17:23:42.471Z,25.53
2018-02-22T17:26:15.688Z,27.20
2018-02-22T17:28:48.971Z,26.30
2018-02-22T17:31:22.367Z,34.47
2018-02-22T17:33:50.157Z,21.37
2018-02-22T17:36:19.244Z,19.60
2018-02-22T17:38:49.385Z,20.33
2018-02-22T17:41:18.711Z,18.83
2018-02-22T17:43:46.593Z,21.63
2018-02-22T17:46:14.232Z,18.87
2018-02-22T17:48:42.033Z,18.57
2018-02-22T17:51:09.825Z,20.20
2018-02-22T17:53:37.600Z,17.10
2018-02-22T17:56:05.570Z,12.20
2018-02-22T17:58:33.257Z,19.03
2018-02-22T18:01:01.140Z,21.07
2018-02-22T18:03:29.017Z,18.03
2018-02-22T18:05:56.804Z,19.10
2018-02-22T18:08:24.561Z,19.20
2018-02-22T18:10:52.249Z,17.70
2018-02-22T18:13:19.911Z,20.50
2018-02-22T18:15:47.590Z,15.57
2018-02-22T18:18:15.378Z,14.10
2018-02-22T18:20:43.671Z,19.80
2018-02-22T18:23:11.550Z,18.27
2018-02-22T18:25:39.331Z,17.93
2018-02-22T18:28:07.279Z,19.90
2018-02-22T18:30:35.085Z,8.67
2018-02-22T18:33:02.867Z,15.40
2018-02-22T18:35:30.711Z,23.33
2018-02-22T18:38:00.124Z,18.63
2018-02-22T18:40:33.451Z,21.57
2018-02-22T18:43:01.142Z,18.80
2018-02-22T18:45:28.977Z,19.47
2018-02-22T18:47:56.929Z,21.13
2018-02-22T18:50:24.539Z,22.07
2018-02-22T18:52:52.241Z,18.37
2018-02-22T18:55:19.825Z,22.27
2018-02-22T18:57:47.609Z,23.10
2018-02-22T19:00:15.445Z,23.97
2018-02-22T19:02:43.274Z,14.93
2018-02-22T19:05:11.002Z,24.87
2018-02-22T19:07:38.729Z,25.90
2018-02-22T19:10:06.502Z,26.43
2018-02-22T19:12:34.106Z,14.60
2018-02-22T19:15:02.056Z,22.20
2018-02-22T19:17:29.786Z,27.90
2018-02-22T19:19:57.607Z,23.43
2018-02-22T19:22:25.489Z,25.33
2018-02-22T19:24:53.270Z,26.47
2018-02-22T19:27:21.026Z,24.77
2018-02-22T19:29:48.816Z,21.40
2018-02-22T19:32:16.605Z,27.70
2018-02-22T19:34:44.386Z,24.33
2018-02-22T19:37:11.972Z,30.00
2018-02-22T19:39:39.724Z,28.77
2018-02-22T19:42:07.473Z,28.27
2018-02-22T19:44:35.285Z,20.10
2018-02-22T19:47:03.067Z,14.47
2018-02-22T19:49:30.849Z,23.03
2018-02-22T19:51:58.516Z,30.57
2018-02-22T19:54:26.252Z,28.47
2018-02-22T19:56:54.074Z,20.27
2018-02-22T19:59:21.851Z,26.97
2018-02-22T20:01:50.757Z,29.00
2018-02-22T20:04:18.636Z,28.03
2018-02-22T20:06:46.515Z,30.67
2018-02-22T20:09:14.195Z,31.80
2018-02-22T20:11:41.954Z,30.90
2018-02-22T20:14:09.635Z,23.50
2018-02-22T20:16:37.320Z,33.10
2018-02-22T20:19:05.093Z,28.30
2018-02-22T20:21:32.749Z,31.07
2018-02-22T20:24:00.614Z,29.97
2018-02-22T20:26:28.327Z,27.37
2018-02-22T20:28:55.999Z,30.37
2018-02-22T20:31:23.671Z,28.77
2018-02-22T20:33:51.357Z,27.87
2018-02-22T20:36:19.042Z,26.00
2018-02-22T20:38:46.706Z,18.70
2018-02-22T20:41:14.486Z,23.37
2018-02-22T20:43:42.163Z,30.50
2018-02-22T20:46:09.767Z,13.73
2018-02-22T20:48:37.616Z,24.20
2018-02-22T20:51:07.343Z,30.83
2018-02-22T20:53:35.827Z,27.50
2018-02-22T20:56:03.619Z,26.83
2018-02-22T20:58:34.150Z,36.50
2018-02-22T21:01:01.996Z,29.73
2018-02-22T21:03:29.702Z,30.63
2018-02-22T21:05:57.330Z,26.80
2018-02-22T21:08:25.095Z,31.40
2018-02-22T21:10:52.844Z,22.97
2018-02-22T21:13:20.616Z,25.27
2018-02-22T21:15:48.393Z,27.23
2018-02-22T21:18:16.135Z,32.73
2018-02-22T21:20:43.946Z,27.57
2018-02-22T21:23:11.828Z,27.67
2018-02-22T21:25:39.588Z,26.63
2018-02-22T21:28:07.284Z,32.97
2018-02-22T21:30:35.060Z,25.40
2018-02-22T21:33:02.837Z,26.83
2018-02-22T21:35:30.551Z,26.93
2018-02-22T21:37:58.289Z,30.77
2018-02-22T21:40:25.949Z,24.87
2018-02-22T21:42:53.701Z,32.47
2018-02-22T21:45:21.523Z,36.30
2018-02-22T21:47:49.403Z,28.07
2018-02-22T21:50:16.997Z,30.37
2018-02-22T21:52:44.737Z,29.80
2018-02-22T21:55:12.533Z,31.60
2018-02-22T21:57:40.271Z,25.97
2018-02-22T22:00:08.164Z,32.10
2018-02-22T22:02:35.965Z,32.50
2018-02-22T22:05:03.633Z,33.73
2018-02-22T22:07:31.385Z,27.67
2018-02-22T22:09:59.201Z,38.47
2018-02-22T22:12:26.965Z,44.73
2018-02-22T22:14:54.757Z,45.97
2018-02-22T22:17:22.361Z,29.17
2018-02-22T22:19:50.017Z,35.43
2018-02-22T22:22:17.777Z,26.17
2018-02-22T22:24:46.481Z,26.97
2018-02-22T22:27:14.259Z,37.57
2018-02-22T22:29:41.839Z,39.83
2018-02-22T22:32:09.571Z,33.70
2018-02-22T22:34:37.259Z,41.17
2018-02-22T22:37:04.911Z,35.10
2018-02-22T22:39:32.525Z,34.10
2018-02-22T22:42:00.201Z,39.47
2018-02-22T22:44:28.184Z,29.63
2018-02-22T22:46:55.963Z,31.97
2018-02-22T22:49:23.553Z,28.60
2018-02-22T22:51:51.165Z,36.13
2018-02-22T22:54:18.989Z,45.20
2018-02-22T22:56:46.623Z,26.83
2018-02-22T22:59:14.208Z,43.57
2018-02-22T23:01:42.015Z,40.77
2018-02-22T23:04:09.639Z,39.33
2018-02-22T23:06:37.362Z,36.60
2018-02-22T23:09:05.244Z,32.73
2018-02-22T23:11:32.920Z,42.20
2018-02-22T23:14:00.698Z,34.93
2018-02-22T23:16:28.296Z,34.10
2018-02-22T23:18:55.954Z,35.10
2018-02-22T23:21:23.537Z,30.63
2018-02-22T23:23:51.138Z,45.40
2018-02-22T23:26:18.903Z,37.10
2018-02-22T23:28:46.545Z,36.77
2018-02-22T23:31:14.180Z,38.47
2018-02-22T23:33:41.864Z,31.87
2018-02-22T23:36:09.592Z,48.13
2018-02-22T23:38:37.217Z,44.07
2018-02-22T23:44:12.329Z,39.37
2018-02-22T23:46:40.068Z,40.10
2018-02-22T23:49:07.883Z,46.47
2018-02-22T23:51:35.625Z,45.53
2018-02-22T23:54:03.548Z,42.17
2018-02-22T23:56:31.249Z,44.77
2018-02-22T23:58:58.998Z,41.73
